EmailTwitter


Surface observations / France / LFBP (07610)

Regions: Quebec | Canada | USA | Europe | France | UK | Elsewhere
Station
Display
Info & Location for LFBP (07610) | Help decoding METAR

Weather Conditions observed on 2018/08/21 at 18:00 UTC at PONT-LONG-UZEIN/, FR (LFBP)

Temperature: 28.0 Celsius.

Dewpoint: 18.0 Celsius.

Relative Humidity: 55%

Humidex: 34.

Winds: North-northwest at 7 km/h or 4 knots.

Mean Sea level Pressure: 101.60 kilopascals.

Coded METAR:

LFBP 211800Z AUTO 34004KT CAVOK 28/18 Q1016 NOSIG=